Date,TemperatureHighF,TemperatureAvgF,TemperatureLowF,DewpointHighF,DewpointAvgF,DewpointLowF,HumidityHigh,HumidityAvg,HumidityLow,PressureMaxIn,PressureMinIn,WindSpeedMaxMPH,WindSpeedAvgMPH,GustSpeedMaxMPH,PrecipitationSumIn
2013-1-1,32,10,2,11,-1,-8,73,61,30,30.11,29.97,7,3,10,0.11
2013-1-2,29,12,1,10,-1,-14,76,57,38,30.12,30.03,9,2,12,0.03
2013-1-3,29,12,2,3,-8,-18,57,41,27,30.19,30.11,8,4,12,0.02
2013-1-4,34,16,6,8,0,-7,78,52,30,30.16,30.08,8,2,10,0.02
2013-1-5,39,25,10,12,0,-8,69,35,22,30.28,30.11,8,3,10,0.01
2013-1-6,43,26,18,10,0,-6,41,33,23,30.27,30.10,8,3,12,0.01
2013-1-7,45,27,18,9,0,-5,40,31,20,30.10,30.01,8,3,12,0.00
2013-1-8,48,31,21,15,3,-9,42,30,23,30.25,30.00,9,3,12,0.00
2013-1-9,47,31,23,14,6,-2,45,34,24,30.37,30.16,8,4,13,0.00
2013-1-10,43,29,22,21,6,-6,84,42,22,30.16,29.76,9,4,14,0.00
2013-1-11,24,13,-3,20,4,-11,85,68,40,29.83,29.60,15,5,26,0.00
2013-1-12,21,1,-9,2,-10,-19,70,58,37,29.85,29.78,9,4,12,0.03
2013-1-13,22,3,-9,2,-8,-19,74,62,38,29.87,29.81,8,3,12,0.01
2013-1-14,25,6,-5,7,-4,-15,75,64,40,29.94,29.83,6,2,9,0.01
2013-1-15,28,8,-7,10,-6,-18,73,53,33,30.16,29.78,8,3,20,0.04
2013-1-16,38,21,8,16,10,-2,83,63,37,30.29,30.15,8,2,9,0.12
2013-1-17,42,26,19,19,14,10,77,61,37,30.38,30.29,7,3,10,0.06
2013-1-18,44,27,17,18,11,-2,73,54,32,30.35,30.25,8,4,12,0.02
2013-1-19,49,30,20,15,3,-8,46,31,19,30.32,30.25,8,3,12,0.01
2013-1-20,47,29,19,11,1,-9,51,30,20,30.31,30.19,8,4,12,0.00
2013-1-21,52,33,23,18,6,-5,51,31,21,30.28,30.22,7,3,12,0.00
2013-1-22,53,35,25,18,2,-9,40,25,17,30.34,30.26,9,4,14,0.00
2013-1-23,56,37,27,12,-1,-12,35,20,12,30.36,30.32,9,4,13,0.00
2013-1-24,53,37,29,28,15,-1,82,44,24,30.33,30.26,8,3,18,0.00
2013-1-25,46,36,30,31,28,25,85,73,52,30.29,30.22,6,1,9,0.00
2013-1-26,40,34,31,31,29,27,90,83,70,30.24,29.96,3,0,7,0.17
2013-1-27,44,34,31,34,29,28,90,83,66,30.03,29.94,9,1,13,0.25
2013-1-28,34,28,21,29,23,15,90,84,71,29.95,29.79,8,4,17,0.01
2013-1-29,24,14,8,16,3,-5,82,61,37,29.92,29.71,9,3,20,0.00
2013-1-30,35,18,5,17,6,-7,78,58,41,30.12,29.92,10,2,16,0.00
2013-1-31,39,28,17,22,17,10,82,63,42,30.24,30.16,7,2,12,0.35
2013-2-1,39,25,15,22,11,3,74,56,32,30.27,30.19,8,4,13,0.24
2013-2-2,45,29,17,20,9,0,62,44,25,30.33,30.26,9,4,12,0.04
2013-2-3,38,29,23,25,12,-2,78,51,21,30.31,30.08,8,3,14,0.01
2013-2-4,44,29,19,24,9,-4,77,44,27,30.12,30.07,9,4,12,0.00
2013-2-5,47,32,20,21,11,0,60,44,27,30.13,30.07,9,4,13,0.00
2013-2-6,43,30,21,22,14,9,67,51,27,30.07,29.99,13,4,20,0.00
2013-2-7,43,27,15,15,8,-4,71,46,20,30.16,30.06,9,3,14,0.00
2013-2-8,38,29,22,21,15,8,83,57,41,30.12,29.82,14,5,21,0.02
2013-2-9,30,22,11,20,13,6,82,70,49,29.83,29.66,8,3,15,0.01
2013-2-10,39,19,12,18,11,6,80,70,42,29.89,29.78,9,2,14,0.12
2013-2-11,39,19,4,15,10,-3,80,68,35,29.98,29.88,9,3,13,0.06
2013-2-12,36,16,2,14,3,-6,74,58,29,30.11,29.97,8,2,12,0.25
2013-2-13,42,24,9,21,12,2,75,61,40,30.10,30.05,6,2,8,0.15
2013-2-14,39,23,12,13,5,-6,66,46,28,30.18,30.06,10,4,16,0.02
2013-2-15,31,22,14,3,-2,-6,49,35,24,30.31,30.17,13,4,22,0.01
2013-2-16,47,29,15,16,2,-5,49,33,14,30.32,30.17,7,3,14,0.00
2013-2-17,46,29,19,13,0,-9,62,30,17,30.17,29.86,12,4,18,0.00
2013-2-18,42,25,12,17,0,-14,78,36,15,30.09,29.86,8,3,15,0.00
2013-2-19,44,25,11,8,-4,-20,39,28,16,30.09,29.83,10,4,16,0.00
2013-2-20,34,25,15,22,12,3,82,60,37,29.83,29.66,9,1,16,0.06
2013-2-21,43,22,12,22,11,5,80,63,39,29.88,29.68,6,3,12,0.16
2013-2-22,38,17,7,21,4,-5,76,58,35,29.99,29.87,9,3,14,0.02
2013-2-23,37,18,4,17,6,-7,80,59,30,29.99,29.76,8,2,18,0.05
2013-2-24,36,17,0,10,0,-8,75,51,25,29.92,29.75,10,4,17,0.07
2013-2-25,43,24,10,12,1,-7,51,38,15,30.00,29.92,10,2,16,0.02
2013-2-26,30,18,10,8,-1,-7,61,44,25,30.03,29.84,10,4,23,0.01
2013-2-27,39,19,4,5,-4,-11,52,38,21,30.17,30.03,9,3,16,0.00
2013-2-28,41,23,8,6,-5,-14,48,31,15,30.27,30.16,7,2,17,0.00
2013-3-1,52,34,20,16,9,2,59,38,21,30.33,30.24,9,3,17,0.00
2013-3-2,60,38,26,23,14,8,55,39,19,30.37,30.26,8,4,14,0.00
2013-3-3,53,37,29,27,17,11,86,47,23,30.26,29.98,9,4,20,0.00
2013-3-4,53,33,19,32,22,7,87,65,39,30.14,29.93,9,2,22,0.26
2013-3-5,52,30,14,15,6,-2,62,37,20,30.25,30.14,8,4,15,0.01
2013-3-6,54,37,24,20,12,-1,54,36,24,30.22,30.09,10,5,18,0.00
2013-3-7,55,39,27,16,12,9,51,35,19,30.13,30.06,9,5,18,0.00
2013-3-8,44,32,27,28,19,8,87,60,32,30.07,29.84,12,2,26,0.09
2013-3-9,44,26,18,25,17,10,87,69,43,29.99,29.78,10,3,13,0.28
2013-3-10,46,27,14,23,8,-100,78,48,25,30.17,29.98,7,3,14,0.11
2013-3-11,57,33,19,27,11,1,56,40,19,30.17,30.09,8,4,14,0.01
2013-3-12,60,36,23,26,16,12,64,46,24,30.30,30.16,8,3,12,0.00
2013-3-13,64,40,26,25,14,8,56,37,17,30.39,30.29,7,4,12,0.00
2013-3-14,68,44,30,23,13,9,42,31,13,30.40,30.34,8,4,12,0.00
2013-3-15,66,46,33,21,14,11,45,30,14,30.35,30.15,15,5,23,0.00
2013-3-16,60,40,30,31,21,16,73,47,25,30.15,30.00,10,4,18,0.00
2013-3-17,51,36,28,30,14,3,81,44,17,30.02,29.88,18,6,25,0.01
2013-3-18,50,34,25,8,3,0,38,27,13,30.11,29.98,12,5,20,0.01
2013-3-19,48,36,26,10,5,1,38,28,16,30.22,30.07,10,3,15,0.00
2013-3-20,56,34,22,30,14,-2,87,48,19,30.22,30.03,8,2,12,0.00
2013-3-21,51,36,24,32,20,1,87,58,22,30.03,29.85,14,3,22,0.16
2013-3-22,49,31,19,16,1,-6,41,28,11,29.94,29.78,15,4,26,0.01
2013-3-23,24,16,7,9,-1,-14,73,48,24,30.04,29.80,13,3,22,0.00
2013-3-24,35,17,3,3,-4,-10,59,42,20,30.06,29.96,12,4,20,0.00
2013-3-25,50,24,7,7,-3,-9,56,35,11,30.16,30.04,9,4,18,0.00
2013-3-26,57,34,21,18,10,3,62,39,21,30.16,30.08,9,3,16,0.00
2013-3-27,62,42,30,21,15,4,63,37,15,30.17,30.08,10,4,16,0.00
2013-3-28,66,43,32,20,14,9,45,31,15,30.23,30.16,12,5,16,0.00
2013-3-29,62,43,33,25,18,13,54,38,19,30.27,30.22,8,4,16,0.00
2013-3-30,63,43,32,26,19,-100,62,43,18,30.27,30.18,10,5,18,0.00
2013-3-31,62,43,29,23,18,11,67,42,15,30.21,30.14,13,4,21,0.00
2013-4-1,62,43,31,33,21,7,89,48,18,30.18,30.03,16,5,24,0.02
2013-4-2,58,35,28,26,17,6,77,50,20,30.08,30.02,15,3,18,0.01
2013-4-3,57,38,24,21,15,8,70,43,19,30.24,30.07,9,3,15,0.01
2013-4-4,71,44,29,24,16,10,57,35,15,30.28,30.20,10,4,15,0.00
2013-4-5,64,45,36,25,19,14,60,37,18,30.23,30.06,12,4,16,0.00
2013-4-6,65,44,32,25,18,9,66,38,15,30.11,30.05,12,4,17,0.00
2013-4-7,62,44,32,23,18,9,66,38,19,30.06,29.96,13,5,25,0.00
2013-4-8,47,38,30,31,20,12,82,49,27,29.95,29.60,23,6,32,0.01
2013-4-9,48,31,24,31,25,17,87,78,52,29.88,29.62,7,1,12,0.30
2013-4-10,51,29,18,47,19,4,86,68,45,30.00,29.88,8,3,10,0.24
2013-4-11,55,32,17,33,17,5,75,55,28,30.02,29.95,9,3,12,0.01
2013-4-12,60,37,22,21,15,10,69,45,17,30.07,30.00,8,3,13,0.01
2013-4-13,63,43,27,22,15,10,53,35,17,30.07,29.81,17,6,30,0.00
2013-4-14,58,42,31,31,22,13,85,48,22,29.88,29.79,13,3,32,0.11
2013-4-15,65,44,36,26,21,13,58,42,19,29.87,29.80,21,6,28,0.02
2013-4-16,62,44,31,24,17,8,65,37,15,29.91,29.81,21,9,40,0.00
2013-4-17,41,32,17,24,13,-1,67,46,19,29.95,29.81,18,8,36,0.01
2013-4-18,32,22,12,-1,-5,-11,52,32,19,30.19,29.96,13,5,25,0.01
2013-4-19,60,32,15,14,4,-10,48,31,16,30.20,30.09,12,3,17,0.00
2013-4-20,60,37,26,27,19,10,66,49,24,30.15,30.03,12,4,20,0.00
2013-4-21,66,41,25,20,14,5,63,38,11,30.19,30.12,15,4,22,0.00
2013-4-22,69,48,38,23,18,12,53,31,15,30.14,29.97,17,4,23,0.00
2013-4-23,52,38,23,20,6,-19,58,30,10,30.14,29.95,14,4,24,0.00
2013-4-24,60,38,21,11,5,-2,43,27,12,30.20,30.11,15,4,22,0.00
2013-4-25,66,44,33,26,16,7,58,34,15,30.19,30.07,14,5,20,0.00
2013-4-26,64,43,29,27,21,15,81,47,16,30.32,30.15,10,3,21,0.00
2013-4-27,71,47,31,21,14,10,52,31,11,30.33,30.23,9,4,17,0.00
2013-4-28,88,51,33,26,15,9,44,27,10,30.28,30.13,12,5,17,0.00
2013-4-29,79,54,40,28,19,16,41,27,11,30.16,30.03,12,4,20,0.00
2013-4-30,75,55,42,23,16,9,36,23,11,30.05,29.98,16,6,28,0.00
2013-5-1,64,46,29,23,8,-14,42,23,7,30.29,30.01,21,4,32,0.00
2013-5-2,59,38,23,12,0,-13,50,23,7,30.39,30.28,9,4,17,0.00
2013-5-3,76,44,27,17,9,1,40,26,10,30.36,30.12,13,4,17,0.00
2013-5-4,73,48,31,18,11,5,40,24,10,30.13,30.06,8,4,14,0.00
2013-5-5,68,48,36,27,16,7,56,29,15,30.19,30.12,13,3,24,0.00
2013-5-6,49,39,33,44,34,27,95,82,56,30.18,30.11,10,2,15,0.24
2013-5-7,57,41,32,49,32,21,94,73,37,30.17,30.09,8,3,12,0.17
2013-5-26,83,56,47,21,14,9,24,19,10,30.20,30.17,8,3,9,0.22
2013-5-27,82,57,40,26,17,9,34,22,10,30.19,30.08,13,6,20,0.11
2013-5-28,76,54,39,27,19,14,44,27,12,30.11,29.95,17,6,30,0.00
2013-5-29,65,48,35,47,30,20,91,58,19,30.04,29.94,16,5,25,0.04
2013-5-30,72,51,35,33,24,16,90,40,14,30.11,30.02,23,5,29,0.02
2013-5-31,68,53,39,22,15,7,40,24,13,30.24,30.10,15,6,26,0.00
2013-6-1,91,57,37,27,14,3,33,19,9,30.28,30.22,12,4,16,0.00
2013-6-2,87,60,40,31,22,15,39,25,13,30.28,30.16,12,4,20,0.00
2013-6-3,87,61,46,45,28,23,68,30,13,30.25,30.16,16,5,28,0.00
2013-6-4,91,62,48,38,27,18,46,28,11,30.24,30.19,13,5,20,0.00
2013-6-5,82,63,47,33,23,14,44,24,11,30.24,30.19,9,4,16,0.00
2013-6-6,87,64,44,32,24,18,39,24,11,30.25,30.18,10,4,17,0.00
2013-6-7,82,62,46,37,28,23,46,30,13,30.26,30.16,9,4,18,0.00
2013-6-8,87,66,47,35,30,26,48,28,13,30.24,30.16,10,5,21,0.00
2013-6-9,96,70,51,32,26,22,38,22,10,30.30,30.24,10,4,21,0.00
2013-6-10,99,73,53,34,26,18,33,20,9,30.32,30.24,16,6,21,0.00
2013-6-11,91,69,51,27,22,17,27,18,10,30.35,30.28,16,6,26,0.00
2013-6-12,80,58,51,24,20,18,30,23,10,30.36,30.32,10,6,13,0.00
2013-6-13,84,63,53,40,27,21,47,26,14,30.35,30.26,17,5,26,0.00
2013-6-14,82,59,49,39,30,17,56,37,12,30.34,30.22,12,4,20,0.00
2013-6-15,81,57,46,34,23,13,49,28,15,30.35,30.23,15,5,24,0.00
2013-6-16,79,58,44,43,31,25,62,39,17,30.35,30.28,13,4,20,0.00
2013-6-17,78,57,49,36,24,16,40,29,15,30.32,30.25,12,5,23,0.00
2013-6-18,91,54,47,38,17,10,31,24,9,30.30,30.18,12,5,21,0.00
2013-6-19,79,55,48,26,13,4,27,19,9,30.20,30.13,9,6,15,0.00
2013-6-20,67,51,46,23,12,6,27,21,14,30.21,30.17,7,4,9,0.00
2013-6-22,78,60,52,23,16,15,23,18,13,30.23,30.18,12,4,18,0.00
2013-6-23,78,54,46,23,15,11,31,23,10,30.22,30.15,9,5,16,0.00
2013-6-24,74,55,48,22,15,12,25,20,13,30.22,30.16,8,5,18,0.00
2013-6-25,82,56,48,33,20,12,35,25,17,30.33,30.21,12,3,15,0.00
2013-6-26,84,59,50,34,29,28,44,34,16,30.40,30.31,10,6,17,0.00
2013-6-27,90,66,57,36,30,27,35,27,13,30.47,30.39,10,4,28,0.00
2013-6-28,90,65,57,43,34,29,50,32,16,30.49,30.40,12,5,16,0.04
2013-6-29,80,59,53,54,41,36,90,53,27,30.45,30.34,8,4,12,0.20
2013-6-30,83,63,50,46,40,35,65,46,21,30.39,30.29,9,4,18,0.02
2013-7-1,86,60,49,45,36,30,66,45,15,30.41,30.32,7,3,12,0.01
2013-7-2,85,59,50,46,36,29,65,46,17,30.42,30.26,9,2,10,0.00
2013-7-3,85,63,48,41,34,26,72,41,12,30.35,30.21,12,3,16,0.00
2013-7-4,81,64,56,41,36,31,43,36,24,30.29,30.20,6,2,9,0.00
2013-7-5,64,60,57,43,40,38,52,47,42,30.26,30.23,6,2,8,0.00
2013-7-6,71,67,58,47,44,43,68,45,36,30.34,30.24,5,3,6,0.00
2013-7-7,81,60,53,48,45,41,77,61,27,30.34,30.26,6,2,8,0.12
2013-7-8,85,64,54,46,40,35,67,45,19,30.41,30.33,9,3,18,0.05
2013-7-9,88,66,54,42,38,33,60,38,17,30.45,30.37,7,3,10,0.00
2013-7-10,85,62,55,51,36,-100,71,43,21,30.42,30.32,8,3,13,0.05
2013-7-11,84,61,53,51,44,41,86,57,27,30.39,30.27,12,4,17,0.06
2013-7-12,79,58,52,54,49,46,88,74,36,30.37,30.28,12,3,18,0.21
2013-7-13,71,57,51,56,48,45,91,75,46,30.38,30.32,8,3,16,0.34
2013-7-14,77,58,52,53,47,44,78,68,34,30.38,30.29,7,3,13,0.27
2013-7-15,76,57,52,54,49,45,92,77,37,30.35,30.29,10,1,18,0.26
2013-7-16,65,54,50,55,50,47,93,86,64,30.40,30.31,6,2,9,0.29
2013-7-17,76,55,50,54,50,47,93,85,42,30.45,30.39,6,1,12,0.10
2013-7-18,78,56,50,57,49,43,93,76,43,30.44,30.33,8,2,10,0.11
2013-7-19,80,58,49,55,45,42,85,64,34,30.37,30.30,7,3,15,0.09
2013-7-20,84,59,51,52,45,-100,79,63,31,30.35,30.22,6,2,13,0.01
2013-7-21,82,60,52,47,42,38,72,55,26,30.33,30.26,9,4,15,0.00
2013-7-22,82,61,51,42,40,38,64,48,23,30.34,30.29,10,3,18,0.00
2013-7-23,85,61,53,42,38,35,53,44,19,30.38,30.32,10,4,21,0.00
2013-7-24,83,62,54,51,42,35,87,51,21,30.40,30.31,12,3,24,0.02
2013-7-25,86,59,50,52,44,34,91,66,26,30.39,30.32,7,2,12,0.05
2013-7-26,82,61,52,52,42,38,91,53,27,30.45,30.36,10,3,18,0.10
2013-7-27,75,55,50,53,48,44,94,78,40,30.45,30.27,12,3,25,0.33
2013-7-28,66,54,51,62,50,45,96,86,61,30.30,30.23,7,1,16,0.74
2013-7-29,73,56,48,52,46,42,94,72,35,30.40,30.26,10,3,17,0.13
2013-7-30,81,60,47,45,40,36,78,53,23,30.47,30.40,12,4,16,0.01
2013-7-31,83,60,50,41,36,32,59,45,18,30.50,30.40,9,5,12,0.00
2013-8-1,74,57,51,53,44,35,94,64,40,30.44,30.34,8,3,12,0.34
2013-8-2,78,57,45,58,47,43,95,74,31,30.40,30.29,10,3,14,0.69
2013-8-3,76,56,50,55,48,44,94,78,45,30.40,30.35,6,2,9,0.54
2013-8-4,76,58,49,49,43,39,76,59,33,30.42,30.34,8,3,15,0.00
2013-8-5,77,57,50,51,47,44,94,71,37,30.42,30.30,7,2,12,0.16
2013-8-6,72,54,47,51,46,43,95,76,43,30.35,30.29,7,2,12,0.18
2013-8-7,63,53,49,53,48,44,91,82,60,30.32,30.27,8,1,14,0.27
2013-8-8,66,51,46,50,44,40,89,78,52,30.33,30.24,12,2,17,0.19
2013-8-9,71,54,42,46,40,36,80,61,29,30.39,30.32,12,4,16,0.01
2013-8-10,70,48,41,46,41,37,96,79,36,30.51,30.37,17,4,31,0.46
2013-8-11,72,51,40,49,40,33,96,70,28,30.44,30.35,8,4,12,0.45
2013-10-2,69,50,38,29,22,17,47,34,21,30.24,30.16,9,5,13,0.00
2013-10-3,62,49,38,31,25,20,54,41,27,30.17,29.96,12,6,21,0.00
2013-10-4,47,34,24,27,13,0,83,46,16,30.21,29.97,10,4,20,0.00
2013-10-5,57,36,25,21,13,1,54,39,24,30.35,30.22,9,4,14,0.00
2013-10-6,67,45,30,27,13,-5,48,28,17,30.38,30.33,7,4,12,0.00
2013-10-7,70,48,37,28,21,18,49,36,17,30.37,30.27,8,5,13,0.00
2013-10-8,65,47,37,26,22,16,49,38,22,30.27,30.09,17,5,24,0.00
2013-10-9,60,45,37,35,24,18,87,46,26,30.12,30.06,10,3,21,0.06
2013-10-10,41,35,30,36,31,27,93,87,64,30.10,29.91,21,3,31,0.40
2013-10-11,36,30,28,33,27,25,89,88,87,30.10,30.04,2,0,3,0.27
2013-10-14,46,35,28,27,22,18,81,60,37,30.20,30.09,10,3,22,0.01
2013-10-15,49,32,23,26,19,13,79,59,29,30.19,30.11,7,4,16,0.01
2013-10-16,51,31,23,26,19,14,86,64,33,30.20,30.12,7,2,12,0.00
2013-10-17,54,36,24,22,12,5,57,38,24,30.19,30.09,9,4,17,0.00
2013-10-18,50,35,28,15,8,2,51,33,17,30.25,30.08,10,3,18,0.00
2013-10-19,58,37,26,23,10,-100,46,35,24,30.25,30.18,8,4,12,0.00
2013-10-20,33,30,29,12,11,9,46,43,40,30.18,30.12,7,5,9,0.00
2013-10-21,36,35,34,10,9,9,36,34,32,30.29,30.26,6,4,10,0.00
2013-10-22,62,44,31,23,16,7,53,34,21,30.32,30.28,9,5,12,0.00
2013-10-23,64,46,33,24,20,15,54,38,19,30.31,30.25,8,5,12,0.00
2013-10-24,66,45,35,25,21,16,51,39,19,30.32,30.26,10,4,14,0.00
2013-10-25,51,39,34,37,32,27,90,75,48,30.32,30.28,6,2,12,0.09
2013-10-26,61,41,32,33,27,-100,88,63,27,30.37,30.29,6,3,9,0.03
2013-10-27,55,41,31,32,27,23,77,59,37,30.34,30.08,8,4,12,0.00
2013-10-28,52,41,32,28,21,-100,75,49,30,30.08,30.02,16,5,25,0.00
2013-10-29,38,34,26,31,26,17,89,71,42,30.10,29.98,8,3,15,0.06
2013-10-30,40,28,21,28,22,14,87,78,58,30.05,29.98,0,0,0,0.21
2013-11-17,45,32,24,28,22,15,82,68,39,30.22,29.89,7,2,12,0.45
2013-11-18,44,29,19,23,16,10,71,60,32,30.27,30.21,8,5,12,0.04
2013-11-19,45,34,26,29,22,17,69,63,48,30.21,30.04,8,3,12,0.01
2013-11-20,45,34,28,30,25,19,87,71,47,30.04,29.96,8,2,15,0.00
2013-11-21,41,33,31,33,29,27,90,85,69,30.17,30.00,1,0,3,0.17
2013-11-22,35,32,31,33,29,28,92,90,88,30.26,30.15,2,0,5,0.06
2013-11-23,31,31,31,28,28,28,90,90,89,30.26,30.24,0,0,0,0.06
2013-11-25,34,34,34,30,30,30,84,84,84,30.12,30.12,0,0,0,0.08
2013-12-20,37,28,16,26,21,10,83,77,61,29.88,29.78,8,2,9,0.08
2013-12-21,36,19,12,18,6,-100,80,63,43,29.87,29.67,8,4,12,0.09
2013-12-22,31,19,10,13,4,-2,61,52,34,30.19,29.88,7,3,10,0.01
2013-12-23,33,21,13,14,7,-1,68,55,35,30.35,30.20,7,3,10,0.01
2013-12-24,44,26,18,21,10,-11,72,53,26,30.31,30.17,8,4,16,0.00
2013-12-25,39,25,17,8,-4,-16,46,28,19,30.34,30.25,7,3,9,0.00
2013-12-26,44,31,22,12,2,-6,34,29,20,30.33,30.26,8,4,12,0.00
2013-12-27,44,34,26,16,14,13,58,45,30,30.30,30.23,6,3,12,0.00
2013-12-28,44,30,23,21,14,-100,71,54,35,30.23,29.99,7,3,10,0.00
2013-12-29,37,25,17,16,9,-4,73,51,26,30.15,29.99,8,3,12,0.00
2013-12-30,38,26,16,16,6,-6,60,43,35,30.28,30.12,6,4,10,0.00
2013-12-31,43,30,20,20,13,4,64,49,35,30.27,30.16,8,3,13,0.00
2014-1-1,38,31,28,20,14,-3,69,52,17,30.17,30.12,12,4,18,0.00